Time;durP1;ratioP1;P1;durP2;ratioP2;P2;SDS_P1;SDS_P2;PMS_P1;PMS_P2;Temp;Humidity;BMP_temperature;BMP_pressure;BME280_temperature;BME280_humidity;BME280_pressure;Samples;Min_cycle;Max_cycle;Signal;HPM_P1;HPM_P2
2019/04/11 00:01:35;;;;;;;132.5;98.1;;;;;;;;;;;;;
2019/04/11 00:03:56;;;;;;;144.5;103.2;;;;;;;;;;;;;
2019/04/11 00:06:21;;;;;;;134.4;97.7;;;;;;;;;;;;;
2019/04/11 00:08:47;;;;;;;138.8;98.4;;;;;;;;;;;;;
2019/04/11 00:11:13;;;;;;;127.1;94.8;;;;;;;;;;;;;
2019/04/11 00:13:38;;;;;;;132.6;97;;;;;;;;;;;;;
2019/04/11 00:16:03;;;;;;;129.5;94.4;;;;;;;;;;;;;
2019/04/11 00:18:28;;;;;;;128.9;96.4;;;;;;;;;;;;;
2019/04/11 00:20:53;;;;;;;133.4;97.4;;;;;;;;;;;;;
2019/04/11 00:23:19;;;;;;;126.1;93.5;;;;;;;;;;;;;
2019/04/11 00:25:45;;;;;;;131.8;95.5;;;;;;;;;;;;;
2019/04/11 00:28:10;;;;;;;133.9;97.3;;;;;;;;;;;;;
2019/04/11 00:30:35;;;;;;;134.4;97.2;;;;;;;;;;;;;
2019/04/11 00:33:00;;;;;;;131.2;95.7;;;;;;;;;;;;;
2019/04/11 00:35:25;;;;;;;130.3;95.2;;;;;;;;;;;;;
2019/04/11 00:37:50;;;;;;;126.8;93.7;;;;;;;;;;;;;
2019/04/11 00:40:15;;;;;;;125;94.3;;;;;;;;;;;;;
2019/04/11 00:42:41;;;;;;;129.3;96.3;;;;;;;;;;;;;
2019/04/11 00:45:06;;;;;;;125.2;92.6;;;;;;;;;;;;;
2019/04/11 00:47:31;;;;;;;129.5;94.7;;;;;;;;;;;;;
2019/04/11 00:49:56;;;;;;;123.6;91.9;;;;;;;;;;;;;
2019/04/11 00:52:21;;;;;;;129.5;95.2;;;;;;;;;;;;;
2019/04/11 00:54:46;;;;;;;127.7;96.6;;;;;;;;;;;;;
2019/04/11 00:57:11;;;;;;;129.3;96.7;;;;;;;;;;;;;
2019/04/11 00:59:38;;;;;;;129.2;95.3;;;;;;;;;;;;;
2019/04/11 01:02:02;;;;;;;136.2;96.6;;;;;;;;;;;;;
2019/04/11 01:04:27;;;;;;;130.1;96.6;;;;;;;;;;;;;
2019/04/11 01:06:52;;;;;;;135.4;99.4;;;;;;;;;;;;;
2019/04/11 01:09:17;;;;;;;139.4;98.4;;;;;;;;;;;;;
2019/04/11 01:11:42;;;;;;;142;100.8;;;;;;;;;;;;;
2019/04/11 01:14:07;;;;;;;140.4;100;;;;;;;;;;;;;
2019/04/11 01:16:40;;;;;;;137.5;101.6;;;;;;;;;;;;;
2019/04/11 01:18:58;;;;;;;138.3;99.8;;;;;;;;;;;;;
2019/04/11 01:21:23;;;;;;;139.4;100.6;;;;;;;;;;;;;
2019/04/11 01:23:48;;;;;;;135.8;98.5;;;;;;;;;;;;;
2019/04/11 01:26:13;;;;;;;132.5;97.5;;;;;;;;;;;;;
2019/04/11 01:28:38;;;;;;;136.4;98.6;;;;;;;;;;;;;
2019/04/11 01:31:08;;;;;;;136.1;98.4;;;;;;;;;;;;;
2019/04/11 01:33:28;;;;;;;132.7;97;;;;;;;;;;;;;
2019/04/11 01:35:54;;;;;;;135.9;98.3;;;;;;;;;;;;;
2019/04/11 01:38:19;;;;;;;132.5;95.9;;;;;;;;;;;;;
2019/04/11 01:40:44;;;;;;;137.1;99;;;;;;;;;;;;;
2019/04/11 01:43:09;;;;;;;137.5;98.1;;;;;;;;;;;;;
2019/04/11 01:45:34;;;;;;;131.6;95.5;;;;;;;;;;;;;
2019/04/11 01:48:07;;;;;;;140;99.1;;;;;;;;;;;;;
2019/04/11 01:50:28;;;;;;;135.4;97.8;;;;;;;;;;;;;
2019/04/11 01:52:50;;;;;;;136;97.7;;;;;;;;;;;;;
2019/04/11 01:55:15;;;;;;;129.5;94;;;;;;;;;;;;;
2019/04/11 01:57:40;;;;;;;130.6;95.8;;;;;;;;;;;;;
2019/04/11 02:00:05;;;;;;;135.1;98.7;;;;;;;;;;;;;
2019/04/11 02:02:49;;;;;;;133.6;97.6;;;;;;;;;;;;;
2019/04/11 02:05:07;;;;;;;128.2;93.5;;;;;;;;;;;;;
2019/04/11 02:07:20;;;;;;;130.4;94.1;;;;;;;;;;;;;
2019/04/11 02:09:46;;;;;;;130.4;95.7;;;;;;;;;;;;;
2019/04/11 02:12:11;;;;;;;129.9;95.5;;;;;;;;;;;;;
2019/04/11 02:14:36;;;;;;;134;94.7;;;;;;;;;;;;;
2019/04/11 02:17:01;;;;;;;131.8;95.6;;;;;;;;;;;;;
2019/04/11 02:19:27;;;;;;;128.7;93.1;;;;;;;;;;;;;
2019/04/11 02:22:02;;;;;;;133.6;96.3;;;;;;;;;;;;;
2019/04/11 02:24:27;;;;;;;133.9;95.4;;;;;;;;;;;;;
2019/04/11 02:26:43;;;;;;;140.7;98.2;;;;;;;;;;;;;
2019/04/11 02:29:09;;;;;;;138.6;98.4;;;;;;;;;;;;;
2019/04/11 02:31:32;;;;;;;136.5;97.6;;;;;;;;;;;;;
2019/04/11 02:33:57;;;;;;;138.3;97.8;;;;;;;;;;;;;
2019/04/11 02:36:23;;;;;;;134.7;97.1;;;;;;;;;;;;;
2019/04/11 02:38:48;;;;;;;137.2;97.4;;;;;;;;;;;;;
2019/04/11 02:41:16;;;;;;;131.9;95.2;;;;;;;;;;;;;
2019/04/11 02:43:38;;;;;;;140.1;97.7;;;;;;;;;;;;;
2019/04/11 02:46:04;;;;;;;132.8;95.8;;;;;;;;;;;;;
2019/04/11 02:48:29;;;;;;;135;96.3;;;;;;;;;;;;;
2019/04/11 02:50:54;;;;;;;138;98.2;;;;;;;;;;;;;
2019/04/11 02:53:20;;;;;;;134.6;96.8;;;;;;;;;;;;;
2019/04/11 02:55:45;;;;;;;133.4;95.9;;;;;;;;;;;;;
2019/04/11 02:58:10;;;;;;;134.1;96.3;;;;;;;;;;;;;
2019/04/11 03:00:37;;;;;;;132;94.6;;;;;;;;;;;;;
2019/04/11 03:03:01;;;;;;;132.8;93.9;;;;;;;;;;;;;
2019/04/11 03:05:26;;;;;;;129.9;92.7;;;;;;;;;;;;;
2019/04/11 03:07:51;;;;;;;122.4;89.5;;;;;;;;;;;;;
2019/04/11 03:10:16;;;;;;;124.3;90.6;;;;;;;;;;;;;
2019/04/11 03:12:41;;;;;;;118.3;87.8;;;;;;;;;;;;;
2019/04/11 03:15:13;;;;;;;122.1;88.4;;;;;;;;;;;;;
2019/04/11 03:17:32;;;;;;;122.2;89.2;;;;;;;;;;;;;
2019/04/11 03:19:57;;;;;;;114.2;85;;;;;;;;;;;;;
2019/04/11 03:22:22;;;;;;;116.7;85.9;;;;;;;;;;;;;
2019/04/11 03:24:47;;;;;;;113.5;84.8;;;;;;;;;;;;;
2019/04/11 03:27:13;;;;;;;116.4;84.9;;;;;;;;;;;;;
2019/04/11 03:29:38;;;;;;;111.7;85;;;;;;;;;;;;;
2019/04/11 03:32:03;;;;;;;113.1;84.1;;;;;;;;;;;;;
2019/04/11 03:34:28;;;;;;;118.1;84.9;;;;;;;;;;;;;
2019/04/11 03:36:54;;;;;;;117.3;86.4;;;;;;;;;;;;;
2019/04/11 03:39:19;;;;;;;122.6;87.9;;;;;;;;;;;;;
2019/04/11 03:41:44;;;;;;;114.4;83.7;;;;;;;;;;;;;
2019/04/11 03:44:09;;;;;;;119.8;86.4;;;;;;;;;;;;;
2019/04/11 03:46:34;;;;;;;112.4;84.1;;;;;;;;;;;;;
2019/04/11 03:48:59;;;;;;;117.5;84.6;;;;;;;;;;;;;
2019/04/11 03:51:25;;;;;;;122.4;86.1;;;;;;;;;;;;;
2019/04/11 03:53:50;;;;;;;114.8;85.6;;;;;;;;;;;;;
2019/04/11 03:56:15;;;;;;;121.7;87.4;;;;;;;;;;;;;
2019/04/11 03:58:40;;;;;;;121.3;87.8;;;;;;;;;;;;;
2019/04/11 04:02:30;;;;;;;123.6;89.9;;;;;;;9.71;81.32129;933.1981;;;;
2019/04/11 04:04:55;;;;;;;124.9;89.6;;;;;;;9.61;81.34766;933.2422;;;;
2019/04/11 04:07:20;;;;;;;121.7;89.8;;;;;;;9.63;81.59082;933.2272;;;;
2019/04/11 04:09:45;;;;;;;131.6;92.7;;;;;;;9.66;81.66406;933.3052;;;;
2019/04/11 04:12:10;;;;;;;133.2;93.2;;;;;;;9.42;82.51758;933.2989;;;;
2019/04/11 04:14:50;;;;;;;130.1;93.1;;;;;;;9.43;82.54492;933.2211;;;;
2019/04/11 04:17:17;;;;;;;136.6;95.5;;;;;;;9.1;83.93652;933.313;;;;
2019/04/11 04:19:39;;;;;;;139.3;97.5;;;;;;;8.95;84.88477;933.3696;;;;
2019/04/11 04:22:02;;;;;;;147.4;101.2;;;;;;;8.87;85.47363;933.3856;;;;
2019/04/11 04:24:27;;;;;;;144;97.8;;;;;;;8.87;85.21191;933.4064;;;;
2019/04/11 04:26:41;;;;;;;138.1;95.7;;;;;;;8.94;84.83789;933.472;;;;
2019/04/11 04:29:06;;;;;;;139.9;97.3;;;;;;;8.75;85.62988;933.4606;;;;
2019/04/11 04:31:32;;;;;;;143;98.6;;;;;;;8.54;86.53223;933.48;;;;
2019/04/11 04:33:57;;;;;;;152;104.4;;;;;;;8.35;87.78906;933.5144;;;;
2019/04/11 04:36:22;;;;;;;148.6;101.6;;;;;;;8.4;87.41406;933.5267;;;;
2019/04/11 04:38:50;;;;;;;151.4;104.3;;;;;;;8.6;86.62402;933.5416;;;;
2019/04/11 04:41:12;;;;;;;148.2;100.2;;;;;;;8.49;86.88672;933.5223;;;;
2019/04/11 04:43:37;;;;;;;154.6;103.8;;;;;;;8.53;86.83691;933.5616;;;;
2019/04/11 04:46:02;;;;;;;159.5;106.2;;;;;;;8.46;87.41504;933.5761;;;;
2019/04/11 04:48:27;;;;;;;152.6;102.3;;;;;;;8.46;87.02734;933.5934;;;;
2019/04/11 04:50:53;;;;;;;156.8;103.5;;;;;;;8.56;86.7627;933.6222;;;;
2019/04/11 04:53:18;;;;;;;154.4;103.3;;;;;;;8.58;86.30273;933.6074;;;;
2019/04/11 04:55:43;;;;;;;145.8;99.9;;;;;;;8.65;85.71289;933.6099;;;;
2019/04/11 04:58:08;;;;;;;149.4;100.9;;;;;;;8.66;85.625;933.6378;;;;
2019/04/11 05:00:33;;;;;;;148.9;100.8;;;;;;;8.72;85.3291;933.6326;;;;
2019/04/11 05:02:58;;;;;;;149.4;99;;;;;;;8.51;85.83301;933.6479;;;;
2019/04/11 05:05:27;;;;;;;143.8;96.8;;;;;;;8.47;86.05176;933.6642;;;;
2019/04/11 05:07:48;;;;;;;147;99.8;;;;;;;8.64;85.34863;933.7034;;;;
2019/04/11 05:10:13;;;;;;;145.5;97.5;;;;;;;8.39;86.70801;933.7098;;;;
2019/04/11 05:12:38;;;;;;;140;96.4;;;;;;;8.47;86.00586;933.6563;;;;
2019/04/11 05:15:03;;;;;;;134.7;93.8;;;;;;;8.4;86.58398;933.6537;;;;
2019/04/11 05:17:29;;;;;;;139.3;95.2;;;;;;;8.36;86.55273;933.7167;;;;
2019/04/11 05:19:54;;;;;;;141.6;97.7;;;;;;;8.51;85.60645;933.728;;;;
2019/04/11 05:22:19;;;;;;;143.2;94.8;;;;;;;8.5;85.85254;933.7296;;;;
2019/04/11 05:24:44;;;;;;;140;95.1;;;;;;;8.68;85.00391;933.7205;;;;
2019/04/11 05:27:09;;;;;;;129.4;91;;;;;;;8.53;85.46191;933.8028;;;;
2019/04/11 05:29:34;;;;;;;131.2;93.3;;;;;;;8.51;85.18555;933.7201;;;;
2019/04/11 05:32:00;;;;;;;135.7;92.4;;;;;;;8.23;86.24316;933.7453;;;;
2019/04/11 05:34:25;;;;;;;133.9;91.8;;;;;;;8.38;85.91016;933.7781;;;;
2019/04/11 05:36:50;;;;;;;126;87.8;;;;;;;8.47;84.89258;933.7745;;;;
2019/04/11 05:39:15;;;;;;;123.8;86.1;;;;;;;8.38;85.29492;933.7447;;;;
2019/04/11 05:41:40;;;;;;;129.5;87.6;;;;;;;8.61;84.32813;933.8123;;;;
2019/04/11 05:44:05;;;;;;;131.8;87.9;;;;;;;;;;;;;
2019/04/11 05:46:30;;;;;;;129.3;89.6;;;;;;;;;;;;;
2019/04/11 05:49:00;;;;;;;132.4;90.1;;;;;;;;;;;;;
2019/04/11 05:51:20;;;;;;;125.4;87.4;;;;;;;;;;;;;
2019/04/11 05:53:46;;;;;;;119.5;85.6;;;;;;;;;;;;;
2019/04/11 05:56:11;;;;;;;127.2;85.9;;;;;;;;;;;;;
2019/04/11 05:58:38;;;;;;;125.4;86.8;;;;;;;;;;;;;
2019/04/11 06:01:06;;;;;;;127.1;86.6;;;;;;;;;;;;;
2019/04/11 06:03:27;;;;;;;129;88.9;;;;;;;;;;;;;
2019/04/11 06:05:57;;;;;;;140.6;89.6;;;;;;;;;;;;;
2019/04/11 06:08:18;;;;;;;132.6;88.9;;;;;;;;;;;;;
2019/04/11 06:10:56;;;;;;;134.6;90.4;;;;;;;;;;;;;
2019/04/11 06:13:29;;;;;;;130.8;90.9;;;;;;;;;;;;;
2019/04/11 06:15:36;;;;;;;138.2;88.5;;;;;;;;;;;;;
2019/04/11 06:17:58;;;;;;;132.3;88.6;;;;;;;;;;;;;
2019/04/11 06:20:34;;;;;;;126.8;87.1;;;;;;;;;;;;;
2019/04/11 06:23:18;;;;;;;127.8;85.4;;;;;;;;;;;;;
2019/04/11 06:27:53;;;;;;;129.7;85.8;;;;;;;;;;;;;
2019/04/11 06:30:12;;;;;;;134;90;;;;;;;;;;;;;
2019/04/11 06:35:20;;;;;;;140.5;92.3;;;;;;;;;;;;;
2019/04/11 06:39:49;;;;;;;140.1;93;;;;;;;;;;;;;
2019/04/11 06:44:42;;;;;;;139.2;92.9;;;;;;;;;;;;;
2019/04/11 06:47:05;;;;;;;142.3;93.8;;;;;;;;;;;;;
2019/04/11 06:49:31;;;;;;;135.9;91;;;;;;;;;;;;;
2019/04/11 06:51:53;;;;;;;136.1;92.9;;;;;;;;;;;;;
2019/04/11 06:56:49;;;;;;;141.3;91.8;;;;;;;;;;;;;
2019/04/11 06:59:08;;;;;;;135.6;88.6;;;;;;;;;;;;;
2019/04/11 07:01:30;;;;;;;134.3;89.3;;;;;;;;;;;;;
2019/04/11 07:04:07;;;;;;;139.2;90.5;;;;;;;;;;;;;
2019/04/11 07:06:23;;;;;;;134.5;90.6;;;;;;;;;;;;;
2019/04/11 07:09:48;;;;;;;138.1;89.1;;;;;;;;;;;;;
2019/04/11 07:11:12;;;;;;;131.2;87.8;;;;;;;;;;;;;
2019/04/11 07:13:45;;;;;;;132.2;87.1;;;;;;;;;;;;;
2019/04/11 07:16:01;;;;;;;131.6;87;;;;;;;;;;;;;
2019/04/11 07:18:32;;;;;;;129.9;87.4;;;;;;;;;;;;;
2019/04/11 07:21:03;;;;;;;131.8;87.8;;;;;;;;;;;;;
2019/04/11 07:26:45;;;;;;;132.4;86.1;;;;;;;;;;;;;
2019/04/11 07:28:14;;;;;;;134.3;89;;;;;;;;;;;;;
2019/04/11 07:33:09;;;;;;;131.1;88.1;;;;;;;;;;;;;
2019/04/11 07:37:50;;;;;;;134.8;87.8;;;;;;;;;;;;;
2019/04/11 07:42:50;;;;;;;131.6;86.3;;;;;;;;;;;;;
2019/04/11 07:45:05;;;;;;;131.5;86.3;;;;;;;;;;;;;
2019/04/11 07:47:38;;;;;;;136.2;85;;;;;;;;;;;;;
2019/04/11 07:49:54;;;;;;;125.7;81.8;;;;;;;;;;;;;
2019/04/11 07:52:19;;;;;;;137.2;87.5;;;;;;;;;;;;;
2019/04/11 07:54:46;;;;;;;135.2;86.3;;;;;;;;;;;;;
2019/04/11 07:57:25;;;;;;;136.1;87.1;;;;;;;;;;;;;
2019/04/11 08:09:28;;;;;;;123.7;79.7;;;;;;;;;;;;;
2019/04/11 08:11:49;;;;;;;130;83.8;;;;;;;;;;;;;
2019/04/11 08:16:57;;;;;;;122;81.5;;;;;;;;;;;;;
2019/04/11 08:19:26;;;;;;;120.2;77.6;;;;;;;;;;;;;
2019/04/11 08:23:51;;;;;;;124.3;79.8;;;;;;;;;;;;;
2019/04/11 08:26:28;;;;;;;127.9;80.5;;;;;;;;;;;;;
2019/04/11 08:28:39;;;;;;;120.7;78.6;;;;;;;;;;;;;
2019/04/11 08:33:30;;;;;;;118.3;74.9;;;;;;;;;;;;;
2019/04/11 08:36:06;;;;;;;124.1;78.8;;;;;;;;;;;;;
2019/04/11 08:38:30;;;;;;;121.2;77.7;;;;;;;;;;;;;
2019/04/11 08:40:59;;;;;;;122;77.3;;;;;;;;;;;;;
2019/04/11 08:43:14;;;;;;;119.8;78;;;;;;;;;;;;;
2019/04/11 08:45:37;;;;;;;116.7;75.7;;;;;;;;;;;;;
2019/04/11 08:48:02;;;;;;;116.4;74.8;;;;;;;;;;;;;
2019/04/11 08:50:31;;;;;;;119.9;75.8;;;;;;;;;;;;;
2019/04/11 08:53:23;;;;;;;125.1;77.1;;;;;;;;;;;;;
2019/04/11 08:55:38;;;;;;;120.2;76.4;;;;;;;;;;;;;
2019/04/11 08:57:46;;;;;;;120.7;75.5;;;;;;;;;;;;;
2019/04/11 09:02:43;;;;;;;118.7;73.7;;;;;;;;;;;;;
2019/04/11 09:07:25;;;;;;;114.6;72;;;;;;;;;;;;;
2019/04/11 09:12:13;;;;;;;101.5;65.8;;;;;;;;;;;;;
2019/04/11 09:17:07;;;;;;;110.3;70.6;;;;;;;;;;;;;
2019/04/11 09:19:34;;;;;;;111.6;69.4;;;;;;;;;;;;;
2019/04/11 09:22:27;;;;;;;106.1;66.8;;;;;;;;;;;;;
2019/04/11 09:24:35;;;;;;;103.3;66;;;;;;;;;;;;;
2019/04/11 09:27:43;;;;;;;102.9;65.4;;;;;;;;;;;;;
2019/04/11 09:29:07;;;;;;;111.7;68.6;;;;;;;;;;;;;
2019/04/11 09:38:47;;;;;;;97.4;63.9;;;;;;;;;;;;;
2019/04/11 09:41:32;;;;;;;94.8;60.8;;;;;;;;;;;;;
2019/04/11 09:43:37;;;;;;;98.4;62.1;;;;;;;;;;;;;
2019/04/11 09:46:32;;;;;;;93.2;61.9;;;;;;;;;;;;;
2019/04/11 09:53:18;;;;;;;93.4;60.9;;;;;;;;;;;;;
2019/04/11 09:55:55;;;;;;;98.3;59.5;;;;;;;;;;;;;
2019/04/11 09:58:22;;;;;;;96.7;60.5;;;;;;;;;;;;;
2019/04/11 10:00:54;;;;;;;96.9;59;;;;;;;;;;;;;
2019/04/11 10:03:05;;;;;;;92.7;59.3;;;;;;;;;;;;;
2019/04/11 10:05:35;;;;;;;93.4;58.5;;;;;;;;;;;;;
2019/04/11 10:08:37;;;;;;;92.2;56.6;;;;;;;;;;;;;
2019/04/11 10:10:57;;;;;;;91.8;56.7;;;;;;;;;;;;;
2019/04/11 10:13:21;;;;;;;88.8;55.9;;;;;;;;;;;;;
2019/04/11 10:15:06;;;;;;;94.6;58.2;;;;;;;;;;;;;
2019/04/11 10:18:20;;;;;;;89;55.1;;;;;;;;;;;;;
2019/04/11 10:20:02;;;;;;;89.4;56;;;;;;;;;;;;;
2019/04/11 10:26:00;;;;;;;87;55.7;;;;;;;;;;;;;
2019/04/11 10:29:18;;;;;;;90.4;54.2;;;;;;;;;;;;;
2019/04/11 10:31:00;;;;;;;90;53.7;;;;;;;;;;;;;
2019/04/11 10:33:21;;;;;;;84.3;54.3;;;;;;;;;;;;;
2019/04/11 10:38:02;;;;;;;84.7;52.5;;;;;;;;;;;;;
2019/04/11 10:41:24;;;;;;;78.7;50.7;;;;;;;;;;;;;
2019/04/11 10:42:55;;;;;;;83.2;51.8;;;;;;;;;;;;;
2019/04/11 10:45:33;;;;;;;80.3;51.3;;;;;;;;;;;;;
2019/04/11 10:47:47;;;;;;;83.9;50.6;;;;;;;;;;;;;
2019/04/11 10:50:36;;;;;;;86;52.8;;;;;;;;;;;;;
2019/04/11 10:52:39;;;;;;;84.2;51.7;;;;;;;;;;;;;
2019/04/11 10:57:32;;;;;;;86.6;52.5;;;;;;;;;;;;;
2019/04/11 10:59:52;;;;;;;84;51.8;;;;;;;;;;;;;
2019/04/11 11:02:49;;;;;;;81;50.9;;;;;;;;;;;;;
2019/04/11 11:04:49;;;;;;;85.3;53.9;;;;;;;;;;;;;
2019/04/11 11:07:13;;;;;;;84.3;53.1;;;;;;;;;;;;;
2019/04/11 11:15:06;;;;;;;89.8;53.7;;;;;;;;;;;;;
2019/04/11 11:17:00;;;;;;;94.7;53.1;;;;;;;;;;;;;
2019/04/11 11:21:39;;;;;;;89.9;53.7;;;;;;;;;;;;;
2019/04/11 11:26:34;;;;;;;85.2;52;;;;;;;;;;;;;
2019/04/11 11:29:01;;;;;;;87.4;53;;;;;;;;;;;;;
2019/04/11 11:31:39;;;;;;;84.8;52.2;;;;;;;;;;;;;
2019/04/11 11:33:44;;;;;;;86.4;51.6;;;;;;;;;;;;;
2019/04/11 11:38:34;;;;;;;86.2;51.6;;;;;;;;;;;;;
2019/04/11 11:43:29;;;;;;;90.5;54;;;;;;;;;;;;;
2019/04/11 11:49:25;;;;;;;94.8;54.9;;;;;;;;;;;;;
2019/04/11 11:54:57;;;;;;;95.9;54.3;;;;;;;;;;;;;
2019/04/11 11:57:26;;;;;;;96.5;55.5;;;;;;;;;;;;;
2019/04/11 11:59:49;;;;;;;100.6;54.8;;;;;;;;;;;;;
2019/04/11 12:02:19;;;;;;;90.2;53.6;;;;;;;;;;;;;
2019/04/11 12:04:53;;;;;;;87.5;52.6;;;;;;;;;;;;;
2019/04/11 12:07:04;;;;;;;88.8;52.5;;;;;;;;;;;;;
2019/04/11 12:19:52;;;;;;;89.1;51.7;;;;;;;;;;;;;
2019/04/11 12:22:12;;;;;;;82.8;50.8;;;;;;;;;;;;;
2019/04/11 12:25:16;;;;;;;84.5;49.5;;;;;;;;;;;;;
2019/04/11 12:27:19;;;;;;;85.6;50.9;;;;;;;;;;;;;
2019/04/11 12:29:43;;;;;;;81;50.2;;;;;;;;;;;;;
2019/04/11 12:31:56;;;;;;;82.8;50.5;;;;;;;;;;;;;
2019/04/11 12:35:25;;;;;;;80.5;48.2;;;;;;;;;;;;;
2019/04/11 12:36:44;;;;;;;80.3;48.5;;;;;;;;;;;;;
2019/04/11 12:40:09;;;;;;;77.1;48;;;;;;;;;;;;;
2019/04/11 12:48:49;;;;;;;82.6;49.7;;;;;;;;;;;;;
2019/04/11 12:53:41;;;;;;;78.6;48.7;;;;;;;;;;;;;
2019/04/11 12:56:24;;;;;;;86.8;49.4;;;;;;;;;;;;;
2019/04/11 12:58:46;;;;;;;88;51.6;;;;;;;;;;;;;
2019/04/11 13:01:24;;;;;;;80.2;48.5;;;;;;;;;;;;;
2019/04/11 13:05:46;;;;;;;83.7;48.9;;;;;;;;;;;;;
2019/04/11 13:10:49;;;;;;;80.1;48.6;;;;;;;;;;;;;
2019/04/11 13:13:32;;;;;;;87;50;;;;;;;;;;;;;
2019/04/11 13:15:44;;;;;;;91.5;52.1;;;;;;;;;;;;;
2019/04/11 13:18:15;;;;;;;88;52.1;;;;;;;;;;;;;
2019/04/11 13:20:45;;;;;;;88.6;52.4;;;;;;;;;;;;;
2019/04/11 13:23:01;;;;;;;96.8;54.5;;;;;;;;;;;;;
2019/04/11 13:27:51;;;;;;;98.6;55.3;;;;;;;;;;;;;
2019/04/11 13:32:51;;;;;;;94.3;55.9;;;;;;;;;;;;;
2019/04/11 13:35:15;;;;;;;97.1;55.1;;;;;;;;;;;;;
2019/04/11 13:40:07;;;;;;;92;54.3;;;;;;;;;;;;;
2019/04/11 13:44:45;;;;;;;93.4;54.2;;;;;;;;;;;;;
2019/04/11 13:49:53;;;;;;;96.6;54.7;;;;;;;;;;;;;
2019/04/11 13:54:49;;;;;;;96.2;54.3;;;;;;;;;;;;;
2019/04/11 14:01:57;;;;;;;87.4;52.9;;;;;;;;;;;;;
2019/04/11 14:04:23;;;;;;;89.2;53.1;;;;;;;;;;;;;
2019/04/11 14:06:45;;;;;;;89.5;53.1;;;;;;;;;;;;;
2019/04/11 14:11:37;;;;;;;89.5;55.6;;;;;;;;;;;;;
2019/04/11 14:14:11;;;;;;;79.8;48.9;;;;;;;;;;;;;
2019/04/11 14:16:26;;;;;;;79;47.6;;;;;;;;;;;;;
2019/04/11 14:19:59;;;;;;;78.2;47.9;;;;;;;;;;;;;
2019/04/11 14:21:18;;;;;;;73.9;46.3;;;;;;;;;;;;;
2019/04/11 14:23:51;;;;;;;81.3;49.7;;;;;;;;;;;;;
2019/04/11 14:26:15;;;;;;;87.9;52.4;;;;;;;;;;;;;
2019/04/11 14:28:35;;;;;;;82.9;49.5;;;;;;;;;;;;;
2019/04/11 14:33:21;;;;;;;83.7;51.6;;;;;;;;;;;;;
2019/04/11 14:38:16;;;;;;;82.9;50.6;;;;;;;;;;;;;
2019/04/11 14:44:12;;;;;;;77.1;47.4;;;;;;;;;;;;;
2019/04/11 14:49:22;;;;;;;78.4;48.6;;;;;;;;;;;;;
2019/04/11 14:51:54;;;;;;;81;49.9;;;;;;;;;;;;;
2019/04/11 14:54:04;;;;;;;80.5;50.4;;;;;;;;;;;;;
2019/04/11 14:56:23;;;;;;;77.9;49.4;;;;;;;;;;;;;
2019/04/11 14:59:30;;;;;;;80.7;50.9;;;;;;;;;;;;;
2019/04/11 15:01:14;;;;;;;82.3;49.1;;;;;;;;;;;;;
2019/04/11 15:03:52;;;;;;;78.7;49.1;;;;;;;;;;;;;
2019/04/11 15:08:46;;;;;;;83;49.8;;;;;;;;;;;;;
2019/04/11 15:11:54;;;;;;;81.8;51.5;;;;;;;;;;;;;
2019/04/11 15:13:18;;;;;;;78.9;50.2;;;;;;;;;;;;;
2019/04/11 15:15:50;;;;;;;81.4;48.9;;;;;;;;;;;;;
2019/04/11 15:18:06;;;;;;;79.7;50.8;;;;;;;;;;;;;
2019/04/11 15:23:17;;;;;;;77.4;50.1;;;;;;;;;;;;;
2019/04/11 15:29:03;;;;;;;82.5;50.8;;;;;;;;;;;;;
2019/04/11 15:31:19;;;;;;;81.1;50.4;;;;;;;;;;;;;
2019/04/11 15:36:00;;;;;;;86.1;51.1;;;;;;;;;;;;;
2019/04/11 15:40:53;;;;;;;85.3;51.7;;;;;;;;;;;;;
2019/04/11 15:46:04;;;;;;;80.3;50.9;;;;;;;;;;;;;
2019/04/11 15:52:58;;;;;;;84.2;51.9;;;;;;;;;;;;;
2019/04/11 15:57:53;;;;;;;84.9;52.4;;;;;;;;;;;;;
2019/04/11 16:00:32;;;;;;;85.4;52.7;;;;;;;;;;;;;
2019/04/11 16:07:58;;;;;;;80.6;51.4;;;;;;;;;;;;;
2019/04/11 16:10:05;;;;;;;79.8;52.3;;;;;;;;;;;;;
2019/04/11 16:12:38;;;;;;;86.1;53.2;;;;;;;;;;;;;
2019/04/11 16:15:08;;;;;;;82.1;52.4;;;;;;;;;;;;;
2019/04/11 16:24:36;;;;;;;87.1;54.6;;;;;;;;;;;;;
2019/04/11 16:27:26;;;;;;;85.9;54.3;;;;;;;;;;;;;
2019/04/11 16:29:31;;;;;;;86.2;55.8;;;;;;;;;;;;;
2019/04/11 16:31:52;;;;;;;87.7;56.3;;;;;;;;;;;;;
2019/04/11 16:34:25;;;;;;;90.1;55.8;;;;;;;;;;;;;
2019/04/11 16:36:54;;;;;;;85.2;55.2;;;;;;;;;;;;;
2019/04/11 16:44:01;;;;;;;92.2;57.2;;;;;;;;;;;;;
2019/04/11 16:47:02;;;;;;;92.4;56.8;;;;;;;;;;;;;
2019/04/11 16:48:49;;;;;;;89.9;56;;;;;;;;;;;;;
2019/04/11 16:51:14;;;;;;;92.1;56.4;;;;;;;;;;;;;
2019/04/11 16:53:39;;;;;;;94.2;57.5;;;;;;;;;;;;;
2019/04/11 16:56:05;;;;;;;97.5;57.4;;;;;;;;;;;;;
2019/04/11 16:58:30;;;;;;;92.4;57.2;;;;;;;;;;;;;
2019/04/11 17:00:55;;;;;;;88.5;57.2;;;;;;;;;;;;;
2019/04/11 17:03:21;;;;;;;90.6;57.2;;;;;;;;;;;;;
2019/04/11 17:05:54;;;;;;;91.9;56.9;;;;;;;;;;;;;
2019/04/11 17:11:43;;;;;;;92.9;57.7;;;;;;;;;;;;;
2019/04/11 17:14:10;;;;;;;95.4;58.7;;;;;;;;;;;;;
2019/04/11 17:16:38;;;;;;;95.2;59.5;;;;;;;;;;;;;
2019/04/11 17:19:03;;;;;;;93.7;59;;;;;;;;;;;;;
2019/04/11 17:21:28;;;;;;;94.2;59.7;;;;;;;;;;;;;
2019/04/11 17:23:53;;;;;;;97.2;57.4;;;;;;;;;;;;;
2019/04/11 17:26:19;;;;;;;92.8;58.3;;;;;;;;;;;;;
2019/04/11 17:28:44;;;;;;;95.2;59.4;;;;;;;;;;;;;
2019/04/11 17:31:09;;;;;;;93.9;59.5;;;;;;;;;;;;;
2019/04/11 17:33:34;;;;;;;94.7;59.4;;;;;;;;;;;;;
2019/04/11 17:36:01;;;;;;;95.1;58.1;;;;;;;;;;;;;
2019/04/11 17:38:24;;;;;;;93.5;59.2;;;;;;;;;;;;;
2019/04/11 17:40:49;;;;;;;98;59.9;;;;;;;;;;;;;
2019/04/11 17:43:14;;;;;;;97.9;59.9;;;;;;;;;;;;;
2019/04/11 17:45:39;;;;;;;100;60.3;;;;;;;;;;;;;
2019/04/11 17:48:05;;;;;;;93.1;59.4;;;;;;;;;;;;;
2019/04/11 17:50:31;;;;;;;94.5;59.2;;;;;;;;;;;;;
2019/04/11 17:52:56;;;;;;;97.9;60.3;;;;;;;;;;;;;
2019/04/11 17:55:21;;;;;;;97.7;60.8;;;;;;;;;;;;;
2019/04/11 17:57:47;;;;;;;95.6;61.2;;;;;;;;;;;;;
2019/04/11 18:00:20;;;;;;;105.5;62.4;;;;;;;;;;;;;
2019/04/11 18:02:37;;;;;;;95.2;58.6;;;;;;;;;;;;;
2019/04/11 18:05:02;;;;;;;95.8;60.1;;;;;;;;;;;;;
2019/04/11 18:07:27;;;;;;;101.6;62.8;;;;;;;;;;;;;
2019/04/11 18:09:52;;;;;;;98;60.7;;;;;;;;;;;;;
2019/04/11 18:12:17;;;;;;;102.6;62.6;;;;;;;;;;;;;
2019/04/11 18:14:42;;;;;;;96.5;63;;;;;;;;;;;;;
2019/04/11 18:17:07;;;;;;;97.2;60.6;;;;;;;;;;;;;
2019/04/11 18:19:32;;;;;;;97.9;61;;;;;;;;;;;;;
2019/04/11 18:21:58;;;;;;;101;62.4;;;;;;;;;;;;;
2019/04/11 18:24:23;;;;;;;102.1;62.8;;;;;;;;;;;;;
2019/04/11 18:26:48;;;;;;;104.9;64.5;;;;;;;;;;;;;
2019/04/11 18:29:13;;;;;;;105;64.1;;;;;;;;;;;;;
2019/04/11 18:31:41;;;;;;;105.4;65.8;;;;;;;;;;;;;
2019/04/11 18:34:06;;;;;;;117.5;68.7;;;;;;;;;;;;;
2019/04/11 18:36:31;;;;;;;118.9;69.4;;;;;;;;;;;;;
2019/04/11 18:38:59;;;;;;;114.8;68.1;;;;;;;;;;;;;
2019/04/11 18:41:21;;;;;;;105.8;67.5;;;;;;;;;;;;;
2019/04/11 18:43:46;;;;;;;111.1;67.1;;;;;;;;;;;;;
2019/04/11 18:46:11;;;;;;;119.7;70.2;;;;;;;;;;;;;
2019/04/11 18:48:36;;;;;;;108.2;68;;;;;;;;;;;;;
2019/04/11 18:51:01;;;;;;;114.9;69;;;;;;;;;;;;;
2019/04/11 18:53:27;;;;;;;105.7;66.4;;;;;;;;;;;;;
2019/04/11 18:55:52;;;;;;;102.8;65.2;;;;;;;;;;;;;
2019/04/11 18:58:17;;;;;;;101.5;65.2;;;;;;;;;;;;;
2019/04/11 19:00:42;;;;;;;107.6;67.5;;;;;;;;;;;;;
2019/04/11 19:03:07;;;;;;;107.7;66.8;;;;;;;;;;;;;
2019/04/11 19:05:32;;;;;;;112.2;69.2;;;;;;;;;;;;;
2019/04/11 19:07:57;;;;;;;105.4;67.3;;;;;;;;;;;;;
2019/04/11 19:10:22;;;;;;;105.2;66.4;;;;;;;;;;;;;
2019/04/11 19:12:48;;;;;;;105.2;67.7;;;;;;;;;;;;;
2019/04/11 19:15:13;;;;;;;105.3;67.2;;;;;;;;;;;;;
2019/04/11 19:17:38;;;;;;;112.7;70.4;;;;;;;;;;;;;
2019/04/11 19:20:05;;;;;;;113.3;72.6;;;;;;;;;;;;;
2019/04/11 19:22:28;;;;;;;106.3;67.4;;;;;;;;;;;;;
2019/04/11 19:24:53;;;;;;;109.9;68.4;;;;;;;;;;;;;
2019/04/11 19:27:18;;;;;;;109.8;69.4;;;;;;;;;;;;;
2019/04/11 19:29:43;;;;;;;102.3;65.9;;;;;;;;;;;;;
2019/04/11 19:32:09;;;;;;;98.4;65.3;;;;;;;;;;;;;
2019/04/11 19:34:34;;;;;;;106;68.2;;;;;;;;;;;;;
2019/04/11 19:36:59;;;;;;;115.6;72.6;;;;;;;;;;;;;
2019/04/11 19:39:25;;;;;;;112.8;71;;;;;;;;;;;;;
2019/04/11 19:41:50;;;;;;;108.4;70.3;;;;;;;;;;;;;
2019/04/11 19:44:15;;;;;;;106.5;70.2;;;;;;;;;;;;;
2019/04/11 19:46:40;;;;;;;106;66;;;;;;;;;;;;;
2019/04/11 19:49:05;;;;;;;100.6;65;;;;;;;;;;;;;
2019/04/11 19:51:30;;;;;;;100.9;64.9;;;;;;;;;;;;;
2019/04/11 19:53:55;;;;;;;94.7;63.8;;;;;;;;;;;;;
2019/04/11 19:56:34;;;;;;;89.5;60.4;;;;;;;;;;;;;
2019/04/11 19:58:46;;;;;;;84;58.3;;;;;;;;;;;;;
2019/04/11 20:01:11;;;;;;;89.6;60;;;;;;;;;;;;;
2019/04/11 20:03:36;;;;;;;83.8;58;;;;;;;;;;;;;
2019/04/11 20:06:01;;;;;;;89.3;58.6;;;;;;;;;;;;;
2019/04/11 20:08:26;;;;;;;86;58.3;;;;;;;;;;;;;
2019/04/11 20:10:52;;;;;;;88.5;60.5;;;;;;;;;;;;;
2019/04/11 20:13:17;;;;;;;83.4;58.7;;;;;;;;;;;;;
2019/04/11 20:15:42;;;;;;;87.8;58.2;;;;;;;;;;;;;
2019/04/11 20:18:07;;;;;;;88.1;61.3;;;;;;;;;;;;;
2019/04/11 20:20:32;;;;;;;92.1;62.7;;;;;;;;;;;;;
2019/04/11 20:22:57;;;;;;;92.3;61.2;;;;;;;;;;;;;
2019/04/11 20:25:22;;;;;;;86;59.8;;;;;;;;;;;;;
2019/04/11 20:27:47;;;;;;;89.5;60;;;;;;;;;;;;;
2019/04/11 20:30:13;;;;;;;94.6;62.7;;;;;;;;;;;;;
2019/04/11 20:32:38;;;;;;;103.8;66.3;;;;;;;;;;;;;
2019/04/11 20:35:03;;;;;;;95.6;63.8;;;;;;;;;;;;;
2019/04/11 20:37:29;;;;;;;98;67.4;;;;;;;;;;;;;
2019/04/11 20:39:54;;;;;;;101.4;68.1;;;;;;;;;;;;;
2019/04/11 20:42:19;;;;;;;108.1;68.6;;;;;;;;;;;;;
2019/04/11 20:44:44;;;;;;;85.6;58.6;;;;;;;;;;;;;
2019/04/11 20:47:09;;;;;;;87.9;58.9;;;;;;;;;;;;;
2019/04/11 20:49:45;;;;;;;83.3;57.8;;;;;;;;;;;;;
2019/04/11 20:51:59;;;;;;;87.6;59.5;;;;;;;;;;;;;
2019/04/11 20:54:25;;;;;;;91.8;60.5;;;;;;;;;;;;;
2019/04/11 20:56:50;;;;;;;82.4;58.2;;;;;;;;;;;;;
2019/04/11 20:59:15;;;;;;;90.7;60.9;;;;;;;;;;;;;
2019/04/11 21:01:40;;;;;;;93.3;60.6;;;;;;;;;;;;;
2019/04/11 21:04:05;;;;;;;94.5;62.3;;;;;;;;;;;;;
2019/04/11 21:06:30;;;;;;;94.2;63.3;;;;;;;;;;;;;
2019/04/11 21:08:55;;;;;;;95.8;62.7;;;;;;;;;;;;;
2019/04/11 21:11:20;;;;;;;100.3;62.8;;;;;;;;;;;;;
2019/04/11 21:13:45;;;;;;;95.5;64.1;;;;;;;;;;;;;
2019/04/11 21:16:17;;;;;;;90.2;62.7;;;;;;;;;;;;;
2019/04/11 21:18:42;;;;;;;93.3;60.5;;;;;;;;;;;;;
2019/04/11 21:21:07;;;;;;;98.3;64.7;;;;;;;;;;;;;
2019/04/11 21:23:32;;;;;;;99.1;64.6;;;;;;;;;;;;;
2019/04/11 21:25:57;;;;;;;97.5;63.8;;;;;;;;;;;;;
2019/04/11 21:28:22;;;;;;;97.3;63.9;;;;;;;;;;;;;
2019/04/11 21:30:47;;;;;;;95.5;63.5;;;;;;;;;;;;;
2019/04/11 21:33:12;;;;;;;94.9;62.9;;;;;;;;;;;;;
2019/04/11 21:35:37;;;;;;;98.9;65;;;;;;;;;;;;;
2019/04/11 21:38:02;;;;;;;96.6;63.6;;;;;;;;;;;;;
2019/04/11 21:40:28;;;;;;;93.5;63;;;;;;;;;;;;;
2019/04/11 21:42:54;;;;;;;89.2;60.5;;;;;;;;;;;;;
2019/04/11 21:45:18;;;;;;;98.3;61.7;;;;;;;;;;;;;
2019/04/11 21:47:43;;;;;;;91.3;60.9;;;;;;;;;;;;;
2019/04/11 21:50:08;;;;;;;92.8;61.7;;;;;;;;;;;;;
2019/04/11 21:52:33;;;;;;;86;59.7;;;;;;;;;;;;;
2019/04/11 21:54:58;;;;;;;90.6;62;;;;;;;;;;;;;
2019/04/11 21:57:23;;;;;;;94.3;62.5;;;;;;;;;;;;;
2019/04/11 21:59:48;;;;;;;100.1;66;;;;;;;;;;;;;